sensor_id;sensor_type;location;lat;lon;timestamp;pressure;altitude;pressure_sealevel;temperature;humidity
11448;BME280;43755;49.736;8.734;2022-08-07T00:00:33;98588.72;;;14.74;57.86
11448;BME280;43755;49.736;8.734;2022-08-07T00:02:34;98595.22;;;14.68;58.22
11448;BME280;43755;49.736;8.734;2022-08-07T00:04:36;98593.59;;;14.66;58.99
11448;BME280;43755;49.736;8.734;2022-08-07T00:06:39;98588.47;;;14.61;58.46
11448;BME280;43755;49.736;8.734;2022-08-07T00:08:40;98587.59;;;14.61;58.94
11448;BME280;43755;49.736;8.734;2022-08-07T00:10:41;98584.41;;;14.54;58.72
11448;BME280;43755;49.736;8.734;2022-08-07T00:12:43;98576.81;;;14.64;58.45
11448;BME280;43755;49.736;8.734;2022-08-07T00:14:44;98581.44;;;14.60;58.31
11448;BME280;43755;49.736;8.734;2022-08-07T00:16:46;98576.19;;;14.59;58.57
11448;BME280;43755;49.736;8.734;2022-08-07T00:18:47;98569.94;;;14.60;58.49
11448;BME280;43755;49.736;8.734;2022-08-07T00:20:49;98569.38;;;14.53;59.50
11448;BME280;43755;49.736;8.734;2022-08-07T00:22:52;98575.94;;;14.46;59.63
11448;BME280;43755;49.736;8.734;2022-08-07T00:24:54;98576.72;;;14.48;59.61
11448;BME280;43755;49.736;8.734;2022-08-07T00:26:55;98564.41;;;14.46;59.28
11448;BME280;43755;49.736;8.734;2022-08-07T00:28:57;98563.91;;;14.38;59.93
11448;BME280;43755;49.736;8.734;2022-08-07T00:30:58;98566.94;;;14.30;59.91
11448;BME280;43755;49.736;8.734;2022-08-07T00:33:00;98561.75;;;14.27;60.68
11448;BME280;43755;49.736;8.734;2022-08-07T00:35:02;98559.41;;;14.40;59.97
11448;BME280;43755;49.736;8.734;2022-08-07T00:37:04;98555.63;;;14.44;59.63
11448;BME280;43755;49.736;8.734;2022-08-07T00:39:07;98551.28;;;14.43;59.33
11448;BME280;43755;49.736;8.734;2022-08-07T00:41:08;98558.97;;;14.30;60.45
11448;BME280;43755;49.736;8.734;2022-08-07T00:43:11;98557.38;;;14.26;60.74
11448;BME280;43755;49.736;8.734;2022-08-07T00:45:13;98554.47;;;14.13;61.67
11448;BME280;43755;49.736;8.734;2022-08-07T00:47:14;98556.31;;;14.11;61.71
11448;BME280;43755;49.736;8.734;2022-08-07T00:49:16;98559.06;;;13.91;62.61
11448;BME280;43755;49.736;8.734;2022-08-07T00:51:17;98554.13;;;13.83;63.14
11448;BME280;43755;49.736;8.734;2022-08-07T00:53:19;98547.22;;;13.79;63.69
11448;BME280;43755;49.736;8.734;2022-08-07T00:55:22;98544.34;;;13.84;64.03
11448;BME280;43755;49.736;8.734;2022-08-07T00:57:24;98544.06;;;13.71;63.73
11448;BME280;43755;49.736;8.734;2022-08-07T00:59:26;98543.97;;;13.73;64.82
11448;BME280;43755;49.736;8.734;2022-08-07T01:01:28;98542.84;;;13.60;65.48
11448;BME280;43755;49.736;8.734;2022-08-07T01:03:30;98548.44;;;13.53;65.74
11448;BME280;43755;49.736;8.734;2022-08-07T01:05:31;98547.78;;;13.48;65.94
11448;BME280;43755;49.736;8.734;2022-08-07T01:07:33;98547.84;;;13.47;66.17
11448;BME280;43755;49.736;8.734;2022-08-07T01:09:35;98548.56;;;13.50;65.61
11448;BME280;43755;49.736;8.734;2022-08-07T01:11:39;98537.53;;;13.60;65.53
11448;BME280;43755;49.736;8.734;2022-08-07T01:13:40;98548.28;;;13.57;66.25
11448;BME280;43755;49.736;8.734;2022-08-07T01:15:42;98552.16;;;13.49;66.77
11448;BME280;43755;49.736;8.734;2022-08-07T01:17:44;98544.31;;;13.46;66.40
11448;BME280;43755;49.736;8.734;2022-08-07T01:19:46;98541.50;;;13.49;66.18
11448;BME280;43755;49.736;8.734;2022-08-07T01:21:50;98536.41;;;13.45;66.79
11448;BME280;43755;49.736;8.734;2022-08-07T01:23:53;98540.75;;;13.47;66.52
11448;BME280;43755;49.736;8.734;2022-08-07T01:25:55;98534.91;;;13.39;67.38
11448;BME280;43755;49.736;8.734;2022-08-07T01:27:56;98540.28;;;13.38;67.95
11448;BME280;43755;49.736;8.734;2022-08-07T01:29:58;98545.81;;;13.33;68.29
11448;BME280;43755;49.736;8.734;2022-08-07T01:32:00;98544.94;;;13.33;67.46
11448;BME280;43755;49.736;8.734;2022-08-07T01:34:02;98541.72;;;13.45;66.95
11448;BME280;43755;49.736;8.734;2022-08-07T01:36:05;98537.78;;;13.35;67.73
11448;BME280;43755;49.736;8.734;2022-08-07T01:38:10;98542.78;;;13.22;67.57
11448;BME280;43755;49.736;8.734;2022-08-07T01:40:12;98532.78;;;13.27;68.41
11448;BME280;43755;49.736;8.734;2022-08-07T01:42:15;98532.25;;;13.39;67.45
11448;BME280;43755;49.736;8.734;2022-08-07T01:44:18;98539.91;;;13.27;68.63
11448;BME280;43755;49.736;8.734;2022-08-07T01:46:20;98541.25;;;13.17;68.36
11448;BME280;43755;49.736;8.734;2022-08-07T01:48:21;98539.53;;;13.16;68.71
11448;BME280;43755;49.736;8.734;2022-08-07T01:50:24;98539.59;;;13.14;68.39
11448;BME280;43755;49.736;8.734;2022-08-07T01:52:27;98541.50;;;13.10;70.42
11448;BME280;43755;49.736;8.734;2022-08-07T01:54:34;98541.31;;;12.95;69.93
11448;BME280;43755;49.736;8.734;2022-08-07T01:56:41;98536.78;;;12.97;71.05
11448;BME280;43755;49.736;8.734;2022-08-07T01:58:47;98541.69;;;12.86;71.73
11448;BME280;43755;49.736;8.734;2022-08-07T02:00:52;98541.09;;;12.79;71.98
11448;BME280;43755;49.736;8.734;2022-08-07T02:02:58;98535.78;;;12.79;71.30
11448;BME280;43755;49.736;8.734;2022-08-07T02:05:03;98526.84;;;12.82;71.80
11448;BME280;43755;49.736;8.734;2022-08-07T02:07:06;98526.03;;;12.80;71.81
11448;BME280;43755;49.736;8.734;2022-08-07T02:09:11;98527.31;;;12.71;72.43
11448;BME280;43755;49.736;8.734;2022-08-07T02:11:15;98527.63;;;12.63;74.22
11448;BME280;43755;49.736;8.734;2022-08-07T02:13:19;98517.66;;;12.68;73.57
11448;BME280;43755;49.736;8.734;2022-08-07T02:15:23;98519.19;;;12.54;74.44
11448;BME280;43755;49.736;8.734;2022-08-07T02:17:27;98535.38;;;12.48;74.57
11448;BME280;43755;49.736;8.734;2022-08-07T02:19:29;98522.22;;;12.45;75.22
11448;BME280;43755;49.736;8.734;2022-08-07T02:21:31;98527.94;;;12.36;76.25
11448;BME280;43755;49.736;8.734;2022-08-07T02:23:37;98519.72;;;12.42;76.30
11448;BME280;43755;49.736;8.734;2022-08-07T02:25:41;98518.97;;;12.38;75.89
11448;BME280;43755;49.736;8.734;2022-08-07T02:27:44;98519.50;;;12.46;75.42
11448;BME280;43755;49.736;8.734;2022-08-07T02:29:48;98531.19;;;12.42;75.69
11448;BME280;43755;49.736;8.734;2022-08-07T02:31:50;98515.53;;;12.36;76.66
11448;BME280;43755;49.736;8.734;2022-08-07T02:33:52;98520.53;;;12.22;78.01
11448;BME280;43755;49.736;8.734;2022-08-07T02:35:56;98510.59;;;12.27;78.04
11448;BME280;43755;49.736;8.734;2022-08-07T02:38:01;98512.78;;;12.17;78.30
11448;BME280;43755;49.736;8.734;2022-08-07T02:40:05;98511.91;;;12.17;77.73
11448;BME280;43755;49.736;8.734;2022-08-07T02:42:08;98510.06;;;12.19;78.02
11448;BME280;43755;49.736;8.734;2022-08-07T02:44:12;98509.25;;;12.17;78.04
11448;BME280;43755;49.736;8.734;2022-08-07T02:46:15;98511.25;;;12.12;78.60
11448;BME280;43755;49.736;8.734;2022-08-07T02:48:18;98507.41;;;12.19;78.56
11448;BME280;43755;49.736;8.734;2022-08-07T02:50:20;98507.22;;;12.23;77.86
11448;BME280;43755;49.736;8.734;2022-08-07T02:52:25;98497.72;;;12.18;78.27
11448;BME280;43755;49.736;8.734;2022-08-07T02:54:31;98503.22;;;12.13;77.93
11448;BME280;43755;49.736;8.734;2022-08-07T02:56:34;98509.25;;;12.17;78.17
11448;BME280;43755;49.736;8.734;2022-08-07T02:58:39;98507.72;;;12.11;78.94
11448;BME280;43755;49.736;8.734;2022-08-07T03:00:44;98499.63;;;12.14;78.76
11448;BME280;43755;49.736;8.734;2022-08-07T03:02:49;98501.75;;;12.06;79.54
11448;BME280;43755;49.736;8.734;2022-08-07T03:04:53;98496.25;;;11.89;81.27
11448;BME280;43755;49.736;8.734;2022-08-07T03:06:56;98499.63;;;11.93;81.45
11448;BME280;43755;49.736;8.734;2022-08-07T03:08:59;98498.91;;;11.89;81.59
11448;BME280;43755;49.736;8.734;2022-08-07T03:11:01;98500.06;;;11.82;83.15
11448;BME280;43755;49.736;8.734;2022-08-07T03:13:02;98501.28;;;11.73;83.93
11448;BME280;43755;49.736;8.734;2022-08-07T03:15:06;98504.03;;;11.70;84.96
11448;BME280;43755;49.736;8.734;2022-08-07T03:17:09;98499.91;;;11.63;85.10
11448;BME280;43755;49.736;8.734;2022-08-07T03:19:11;98502.50;;;11.65;85.52
11448;BME280;43755;49.736;8.734;2022-08-07T03:21:13;98503.59;;;11.59;86.14
11448;BME280;43755;49.736;8.734;2022-08-07T03:23:16;98501.97;;;11.55;87.29
11448;BME280;43755;49.736;8.734;2022-08-07T03:25:18;98501.88;;;11.58;86.70
11448;BME280;43755;49.736;8.734;2022-08-07T03:27:20;98506.59;;;11.50;87.50
11448;BME280;43755;49.736;8.734;2022-08-07T03:29:21;98492.59;;;11.46;87.63
11448;BME280;43755;49.736;8.734;2022-08-07T03:31:24;98497.38;;;11.37;88.57
11448;BME280;43755;49.736;8.734;2022-08-07T03:33:27;98493.72;;;11.41;88.58
11448;BME280;43755;49.736;8.734;2022-08-07T03:35:30;98495.66;;;11.36;88.90
11448;BME280;43755;49.736;8.734;2022-08-07T03:37:33;98499.34;;;11.32;89.53
11448;BME280;43755;49.736;8.734;2022-08-07T03:39:37;98494.13;;;11.30;89.58
11448;BME280;43755;49.736;8.734;2022-08-07T03:41:39;98492.56;;;11.25;89.75
11448;BME280;43755;49.736;8.734;2022-08-07T03:43:41;98490.66;;;11.28;89.81
11448;BME280;43755;49.736;8.734;2022-08-07T03:45:44;98494.41;;;11.23;90.04
11448;BME280;43755;49.736;8.734;2022-08-07T03:47:45;98490.66;;;11.28;90.45
11448;BME280;43755;49.736;8.734;2022-08-07T03:49:49;98488.09;;;11.25;89.96
11448;BME280;43755;49.736;8.734;2022-08-07T03:51:51;98490.16;;;11.19;90.86
11448;BME280;43755;49.736;8.734;2022-08-07T03:53:53;98495.44;;;11.19;91.18
11448;BME280;43755;49.736;8.734;2022-08-07T03:55:56;98494.50;;;11.20;91.33
11448;BME280;43755;49.736;8.734;2022-08-07T03:57:59;98491.84;;;11.20;91.00
11448;BME280;43755;49.736;8.734;2022-08-07T04:00:00;98488.34;;;11.19;90.62
11448;BME280;43755;49.736;8.734;2022-08-07T04:02:03;98499.00;;;11.18;90.98
11448;BME280;43755;49.736;8.734;2022-08-07T04:04:04;98498.09;;;11.19;90.71
11448;BME280;43755;49.736;8.734;2022-08-07T04:06:08;98498.00;;;11.20;90.87
11448;BME280;43755;49.736;8.734;2022-08-07T04:08:11;98500.66;;;11.20;90.87
11448;BME280;43755;49.736;8.734;2022-08-07T04:10:13;98502.13;;;11.29;90.40
11448;BME280;43755;49.736;8.734;2022-08-07T04:12:15;98498.69;;;11.25;90.04
11448;BME280;43755;49.736;8.734;2022-08-07T04:14:18;98501.34;;;11.25;90.98
11448;BME280;43755;49.736;8.734;2022-08-07T04:16:20;98499.50;;;11.27;90.43
11448;BME280;43755;49.736;8.734;2022-08-07T04:18:22;98496.06;;;11.25;90.19
11448;BME280;43755;49.736;8.734;2022-08-07T04:20:23;98500.28;;;11.31;90.57
11448;BME280;43755;49.736;8.734;2022-08-07T04:22:26;98496.88;;;11.27;90.66
11448;BME280;43755;49.736;8.734;2022-08-07T04:24:28;98501.66;;;11.18;91.52
11448;BME280;43755;49.736;8.734;2022-08-07T04:26:31;98498.13;;;11.17;91.57
11448;BME280;43755;49.736;8.734;2022-08-07T04:28:32;98499.75;;;11.21;91.10
11448;BME280;43755;49.736;8.734;2022-08-07T04:30:34;98499.88;;;11.18;92.15
11448;BME280;43755;49.736;8.734;2022-08-07T04:32:36;98508.56;;;11.22;91.51
11448;BME280;43755;49.736;8.734;2022-08-07T04:34:38;98507.59;;;11.24;91.14
11448;BME280;43755;49.736;8.734;2022-08-07T04:36:39;98504.72;;;11.30;90.16
11448;BME280;43755;49.736;8.734;2022-08-07T04:38:43;98507.13;;;11.36;90.26
11448;BME280;43755;49.736;8.734;2022-08-07T04:40:45;98507.88;;;11.40;89.88
11448;BME280;43755;49.736;8.734;2022-08-07T04:42:47;98514.91;;;11.41;90.33
11448;BME280;43755;49.736;8.734;2022-08-07T04:44:48;98513.13;;;11.41;90.33
11448;BME280;43755;49.736;8.734;2022-08-07T04:46:54;98515.78;;;11.41;90.58
11448;BME280;43755;49.736;8.734;2022-08-07T04:49:05;98515.63;;;11.44;90.49
11448;BME280;43755;49.736;8.734;2022-08-07T04:51:18;98526.28;;;11.43;90.71
11448;BME280;43755;49.736;8.734;2022-08-07T04:53:27;98520.66;;;11.52;89.96
11448;BME280;43755;49.736;8.734;2022-08-07T04:55:45;98528.53;;;11.54;90.14
11448;BME280;43755;49.736;8.734;2022-08-07T04:57:51;98529.50;;;11.51;90.91
11448;BME280;43755;49.736;8.734;2022-08-07T04:59:58;98535.63;;;11.53;91.09
11448;BME280;43755;49.736;8.734;2022-08-07T05:02:05;98531.84;;;11.60;90.96
11448;BME280;43755;49.736;8.734;2022-08-07T05:04:13;98534.34;;;11.63;90.51
11448;BME280;43755;49.736;8.734;2022-08-07T05:06:18;98523.31;;;11.75;89.60
11448;BME280;43755;49.736;8.734;2022-08-07T05:08:26;98533.72;;;11.80;88.99
11448;BME280;43755;49.736;8.734;2022-08-07T05:10:34;98526.28;;;11.89;88.03
11448;BME280;43755;49.736;8.734;2022-08-07T05:12:40;98538.09;;;12.03;87.08
11448;BME280;43755;49.736;8.734;2022-08-07T05:14:43;98532.56;;;12.09;86.85
11448;BME280;43755;49.736;8.734;2022-08-07T05:16:47;98528.53;;;12.20;87.14
11448;BME280;43755;49.736;8.734;2022-08-07T05:18:52;98528.84;;;12.35;85.65
11448;BME280;43755;49.736;8.734;2022-08-07T05:20:56;98531.97;;;12.44;85.25
11448;BME280;43755;49.736;8.734;2022-08-07T05:23:03;98534.13;;;12.56;84.43
11448;BME280;43755;49.736;8.734;2022-08-07T05:25:07;98543.59;;;12.62;84.78
11448;BME280;43755;49.736;8.734;2022-08-07T05:27:13;98542.09;;;12.77;82.34
11448;BME280;43755;49.736;8.734;2022-08-07T05:29:16;98539.19;;;12.83;83.19
11448;BME280;43755;49.736;8.734;2022-08-07T05:31:22;98532.88;;;12.85;82.26
11448;BME280;43755;49.736;8.734;2022-08-07T05:33:27;98533.88;;;12.83;81.82
11448;BME280;43755;49.736;8.734;2022-08-07T05:35:30;98540.22;;;12.79;83.78
11448;BME280;43755;49.736;8.734;2022-08-07T05:37:33;98535.53;;;12.85;82.92
11448;BME280;43755;49.736;8.734;2022-08-07T05:39:35;98542.34;;;12.91;82.59
11448;BME280;43755;49.736;8.734;2022-08-07T05:41:38;98539.25;;;13.01;82.08
11448;BME280;43755;49.736;8.734;2022-08-07T05:43:46;98543.28;;;13.10;80.71
11448;BME280;43755;49.736;8.734;2022-08-07T05:45:49;98549.81;;;13.23;79.53
11448;BME280;43755;49.736;8.734;2022-08-07T05:47:51;98551.78;;;13.38;79.98
11448;BME280;43755;49.736;8.734;2022-08-07T05:49:53;98554.16;;;13.44;77.66
11448;BME280;43755;49.736;8.734;2022-08-07T05:51:54;98555.81;;;13.47;78.23
11448;BME280;43755;49.736;8.734;2022-08-07T05:53:56;98557.06;;;13.59;77.78
11448;BME280;43755;49.736;8.734;2022-08-07T05:55:58;98559.00;;;13.74;77.05
11448;BME280;43755;49.736;8.734;2022-08-07T05:58:01;98555.97;;;13.81;76.40
11448;BME280;43755;49.736;8.734;2022-08-07T06:00:07;98547.84;;;13.84;75.54
11448;BME280;43755;49.736;8.734;2022-08-07T06:02:13;98563.44;;;13.92;73.37
11448;BME280;43755;49.736;8.734;2022-08-07T06:04:17;98558.66;;;14.00;74.65
11448;BME280;43755;49.736;8.734;2022-08-07T06:06:20;98557.41;;;14.07;73.80
11448;BME280;43755;49.736;8.734;2022-08-07T06:08:22;98558.16;;;14.28;73.30
11448;BME280;43755;49.736;8.734;2022-08-07T06:10:24;98563.13;;;14.35;73.83
11448;BME280;43755;49.736;8.734;2022-08-07T06:12:29;98557.28;;;14.46;74.26
11448;BME280;43755;49.736;8.734;2022-08-07T06:14:31;98568.28;;;14.57;71.50
11448;BME280;43755;49.736;8.734;2022-08-07T06:16:34;98566.56;;;14.73;70.64
11448;BME280;43755;49.736;8.734;2022-08-07T06:18:39;98565.81;;;14.89;68.32
11448;BME280;43755;49.736;8.734;2022-08-07T06:20:40;98563.69;;;14.95;69.93
11448;BME280;43755;49.736;8.734;2022-08-07T06:22:43;98574.97;;;15.00;67.26
11448;BME280;43755;49.736;8.734;2022-08-07T06:24:47;98569.88;;;15.13;68.12
11448;BME280;43755;49.736;8.734;2022-08-07T06:26:48;98562.25;;;15.23;65.25
11448;BME280;43755;49.736;8.734;2022-08-07T06:28:50;98566.00;;;15.36;65.03
11448;BME280;43755;49.736;8.734;2022-08-07T06:30:52;98560.94;;;15.47;65.41
11448;BME280;43755;49.736;8.734;2022-08-07T06:32:55;98564.19;;;15.53;63.94
11448;BME280;43755;49.736;8.734;2022-08-07T06:34:58;98570.03;;;15.60;64.56
11448;BME280;43755;49.736;8.734;2022-08-07T06:37:00;98574.06;;;15.67;64.07
11448;BME280;43755;49.736;8.734;2022-08-07T06:39:01;98565.59;;;15.76;63.14
11448;BME280;43755;49.736;8.734;2022-08-07T06:41:05;98567.22;;;15.79;62.21
11448;BME280;43755;49.736;8.734;2022-08-07T06:43:09;98562.84;;;15.93;61.91
11448;BME280;43755;49.736;8.734;2022-08-07T06:45:13;98565.00;;;16.03;61.03
11448;BME280;43755;49.736;8.734;2022-08-07T06:47:15;98561.97;;;16.09;61.39
11448;BME280;43755;49.736;8.734;2022-08-07T06:49:18;98563.53;;;16.28;59.34
11448;BME280;43755;49.736;8.734;2022-08-07T06:51:22;98562.75;;;16.26;59.54
11448;BME280;43755;49.736;8.734;2022-08-07T06:53:27;98558.53;;;16.38;59.96
11448;BME280;43755;49.736;8.734;2022-08-07T06:55:30;98562.41;;;16.48;59.00
11448;BME280;43755;49.736;8.734;2022-08-07T06:57:33;98559.22;;;16.42;58.29
11448;BME280;43755;49.736;8.734;2022-08-07T06:59:38;98558.09;;;16.46;58.34
11448;BME280;43755;49.736;8.734;2022-08-07T07:01:41;98560.75;;;16.61;57.29
11448;BME280;43755;49.736;8.734;2022-08-07T07:03:44;98560.25;;;16.55;58.35
11448;BME280;43755;49.736;8.734;2022-08-07T07:05:47;98555.75;;;16.55;58.44
11448;BME280;43755;49.736;8.734;2022-08-07T07:07:48;98565.28;;;16.61;58.06
11448;BME280;43755;49.736;8.734;2022-08-07T07:09:50;98564.63;;;16.56;57.81
11448;BME280;43755;49.736;8.734;2022-08-07T07:12:00;98563.09;;;16.52;57.52
11448;BME280;43755;49.736;8.734;2022-08-07T07:14:04;98571.44;;;16.61;57.93
11448;BME280;43755;49.736;8.734;2022-08-07T07:16:10;98568.41;;;16.83;57.82
11448;BME280;43755;49.736;8.734;2022-08-07T07:18:18;98568.13;;;16.88;57.87
11448;BME280;43755;49.736;8.734;2022-08-07T07:20:25;98570.50;;;16.92;56.72
11448;BME280;43755;49.736;8.734;2022-08-07T07:22:29;98562.56;;;17.06;56.65
11448;BME280;43755;49.736;8.734;2022-08-07T07:24:31;98571.69;;;17.02;56.24
11448;BME280;43755;49.736;8.734;2022-08-07T07:26:33;98563.19;;;16.96;55.46
11448;BME280;43755;49.736;8.734;2022-08-07T07:28:38;98559.78;;;17.08;56.51
11448;BME280;43755;49.736;8.734;2022-08-07T07:30:45;98569.72;;;17.20;54.96
11448;BME280;43755;49.736;8.734;2022-08-07T07:32:49;98564.78;;;17.28;54.49
11448;BME280;43755;49.736;8.734;2022-08-07T07:34:55;98565.25;;;17.35;54.33
11448;BME280;43755;49.736;8.734;2022-08-07T07:37:00;98562.88;;;17.44;54.99
11448;BME280;43755;49.736;8.734;2022-08-07T07:39:04;98564.06;;;17.54;54.55
11448;BME280;43755;49.736;8.734;2022-08-07T07:41:08;98561.47;;;17.67;53.68
11448;BME280;43755;49.736;8.734;2022-08-07T07:43:13;98556.13;;;17.81;53.89
11448;BME280;43755;49.736;8.734;2022-08-07T07:45:17;98557.38;;;17.90;53.15
11448;BME280;43755;49.736;8.734;2022-08-07T07:47:22;98554.09;;;17.99;53.06
11448;BME280;43755;49.736;8.734;2022-08-07T07:49:26;98558.09;;;18.06;53.33
11448;BME280;43755;49.736;8.734;2022-08-07T07:51:29;98554.66;;;18.18;54.11
11448;BME280;43755;49.736;8.734;2022-08-07T07:53:33;98557.66;;;18.26;52.65
11448;BME280;43755;49.736;8.734;2022-08-07T07:55:38;98554.81;;;18.29;52.98
11448;BME280;43755;49.736;8.734;2022-08-07T07:57:41;98543.28;;;18.41;54.05
11448;BME280;43755;49.736;8.734;2022-08-07T07:59:44;98553.38;;;18.51;52.56
11448;BME280;43755;49.736;8.734;2022-08-07T08:01:47;98538.47;;;18.61;52.01
11448;BME280;43755;49.736;8.734;2022-08-07T08:03:50;98553.69;;;18.60;52.62
11448;BME280;43755;49.736;8.734;2022-08-07T08:05:53;98553.56;;;18.62;52.47
11448;BME280;43755;49.736;8.734;2022-08-07T08:07:55;98548.78;;;18.67;52.04
11448;BME280;43755;49.736;8.734;2022-08-07T08:09:57;98549.19;;;18.73;52.93
11448;BME280;43755;49.736;8.734;2022-08-07T08:12:01;98555.13;;;18.78;51.98
11448;BME280;43755;49.736;8.734;2022-08-07T08:14:03;98549.47;;;18.83;52.21
11448;BME280;43755;49.736;8.734;2022-08-07T08:16:05;98548.19;;;18.89;51.29
11448;BME280;43755;49.736;8.734;2022-08-07T08:18:08;98539.84;;;19.06;51.63
11448;BME280;43755;49.736;8.734;2022-08-07T08:20:11;98545.97;;;19.20;52.01
11448;BME280;43755;49.736;8.734;2022-08-07T08:22:15;98541.16;;;19.26;51.31
11448;BME280;43755;49.736;8.734;2022-08-07T08:24:36;98541.81;;;19.29;49.87
11448;BME280;43755;49.736;8.734;2022-08-07T08:27:00;98540.50;;;19.35;50.53
11448;BME280;43755;49.736;8.734;2022-08-07T08:29:10;98539.78;;;19.45;50.71
11448;BME280;43755;49.736;8.734;2022-08-07T08:31:16;98546.22;;;19.68;50.69
11448;BME280;43755;49.736;8.734;2022-08-07T08:33:21;98539.34;;;19.77;50.64
11448;BME280;43755;49.736;8.734;2022-08-07T08:35:26;98541.06;;;19.78;49.79
11448;BME280;43755;49.736;8.734;2022-08-07T08:37:29;98538.22;;;19.92;49.92
11448;BME280;43755;49.736;8.734;2022-08-07T08:39:32;98533.94;;;20.02;50.49
11448;BME280;43755;49.736;8.734;2022-08-07T08:41:42;98538.13;;;19.93;49.57
11448;BME280;43755;49.736;8.734;2022-08-07T08:43:57;98541.13;;;20.01;49.26
11448;BME280;43755;49.736;8.734;2022-08-07T08:46:06;98541.47;;;20.21;49.65
11448;BME280;43755;49.736;8.734;2022-08-07T08:48:17;98534.94;;;20.25;48.98
11448;BME280;43755;49.736;8.734;2022-08-07T08:50:24;98533.94;;;20.38;48.33
11448;BME280;43755;49.736;8.734;2022-08-07T08:52:31;98537.53;;;20.50;49.56
11448;BME280;43755;49.736;8.734;2022-08-07T08:54:37;98529.56;;;20.61;48.27
11448;BME280;43755;49.736;8.734;2022-08-07T08:56:43;98535.88;;;20.84;47.16
11448;BME280;43755;49.736;8.734;2022-08-07T08:58:52;98521.50;;;20.96;46.86
11448;BME280;43755;49.736;8.734;2022-08-07T09:00:59;98528.06;;;20.92;46.10
11448;BME280;43755;49.736;8.734;2022-08-07T09:03:11;98535.91;;;20.95;46.76
11448;BME280;43755;49.736;8.734;2022-08-07T09:05:24;98524.53;;;20.68;45.45
11448;BME280;43755;49.736;8.734;2022-08-07T09:07:34;98520.97;;;20.91;46.59
11448;BME280;43755;49.736;8.734;2022-08-07T09:09:57;98529.59;;;21.07;46.04
11448;BME280;43755;49.736;8.734;2022-08-07T09:12:06;98525.94;;;21.08;44.80
11448;BME280;43755;49.736;8.734;2022-08-07T09:14:15;98525.25;;;21.29;44.73
11448;BME280;43755;49.736;8.734;2022-08-07T09:16:24;98532.25;;;21.31;45.00
11448;BME280;43755;49.736;8.734;2022-08-07T09:18:39;98520.47;;;21.21;44.31
11448;BME280;43755;49.736;8.734;2022-08-07T09:20:58;98523.91;;;21.23;44.99
11448;BME280;43755;49.736;8.734;2022-08-07T09:23:08;98520.16;;;21.37;44.51
11448;BME280;43755;49.736;8.734;2022-08-07T09:25:21;98523.56;;;21.39;43.88
11448;BME280;43755;49.736;8.734;2022-08-07T09:27:28;98521.50;;;21.53;44.98
11448;BME280;43755;49.736;8.734;2022-08-07T09:29:43;98518.81;;;21.76;44.01
11448;BME280;43755;49.736;8.734;2022-08-07T09:31:54;98522.25;;;21.67;43.29
11448;BME280;43755;49.736;8.734;2022-08-07T09:34:07;98517.72;;;21.89;43.58
11448;BME280;43755;49.736;8.734;2022-08-07T09:36:13;98522.72;;;21.94;42.04
11448;BME280;43755;49.736;8.734;2022-08-07T09:38:22;98526.06;;;22.09;42.47
11448;BME280;43755;49.736;8.734;2022-08-07T09:40:39;98511.38;;;21.90;42.40
11448;BME280;43755;49.736;8.734;2022-08-07T09:42:49;98514.06;;;21.79;43.04
11448;BME280;43755;49.736;8.734;2022-08-07T09:44:57;98515.16;;;21.88;42.88
11448;BME280;43755;49.736;8.734;2022-08-07T09:47:10;98507.44;;;21.94;41.76
11448;BME280;43755;49.736;8.734;2022-08-07T09:49:26;98507.38;;;22.28;41.42
11448;BME280;43755;49.736;8.734;2022-08-07T09:51:42;98503.97;;;22.37;40.74
11448;BME280;43755;49.736;8.734;2022-08-07T09:53:44;98505.47;;;22.51;40.45
11448;BME280;43755;49.736;8.734;2022-08-07T09:56:07;98505.72;;;22.59;39.54
11448;BME280;43755;49.736;8.734;2022-08-07T09:58:31;98499.28;;;22.71;39.36
11448;BME280;43755;49.736;8.734;2022-08-07T10:00:49;98483.53;;;22.87;38.20
11448;BME280;43755;49.736;8.734;2022-08-07T10:03:10;98486.00;;;22.90;38.52
11448;BME280;43755;49.736;8.734;2022-08-07T10:05:25;98487.56;;;22.93;37.48
11448;BME280;43755;49.736;8.734;2022-08-07T10:07:39;98483.22;;;22.80;36.29
11448;BME280;43755;49.736;8.734;2022-08-07T10:09:51;98482.31;;;22.91;36.43
11448;BME280;43755;49.736;8.734;2022-08-07T10:12:09;98482.25;;;23.02;38.65
11448;BME280;43755;49.736;8.734;2022-08-07T10:14:27;98479.09;;;22.97;37.04
11448;BME280;43755;49.736;8.734;2022-08-07T10:16:40;98476.56;;;23.05;38.24
11448;BME280;43755;49.736;8.734;2022-08-07T10:19:03;98474.66;;;23.38;37.63
11448;BME280;43755;49.736;8.734;2022-08-07T10:21:20;98477.06;;;23.61;36.35
11448;BME280;43755;49.736;8.734;2022-08-07T10:23:38;98472.03;;;23.87;36.66
11448;BME280;43755;49.736;8.734;2022-08-07T10:25:53;98475.88;;;24.25;36.07
11448;BME280;43755;49.736;8.734;2022-08-07T10:28:29;98466.94;;;24.53;33.58
11448;BME280;43755;49.736;8.734;2022-08-07T10:30:42;98471.06;;;24.57;34.18
11448;BME280;43755;49.736;8.734;2022-08-07T10:33:03;98466.97;;;24.92;34.36
11448;BME280;43755;49.736;8.734;2022-08-07T10:35:14;98452.13;;;25.15;34.11
11448;BME280;43755;49.736;8.734;2022-08-07T10:37:28;98455.47;;;25.36;33.82
11448;BME280;43755;49.736;8.734;2022-08-07T10:39:44;98453.56;;;25.46;34.58
11448;BME280;43755;49.736;8.734;2022-08-07T10:41:54;98465.13;;;25.58;34.00
11448;BME280;43755;49.736;8.734;2022-08-07T10:44:04;98456.41;;;24.98;34.47
11448;BME280;43755;49.736;8.734;2022-08-07T10:46:12;98448.84;;;25.02;34.10
11448;BME280;43755;49.736;8.734;2022-08-07T10:48:25;98440.59;;;25.50;33.37
11448;BME280;43755;49.736;8.734;2022-08-07T10:50:33;98457.22;;;25.74;32.27
11448;BME280;43755;49.736;8.734;2022-08-07T10:52:50;98447.44;;;24.59;32.84
11448;BME280;43755;49.736;8.734;2022-08-07T10:54:56;98451.25;;;24.28;33.45
11448;BME280;43755;49.736;8.734;2022-08-07T10:57:07;98442.44;;;24.26;34.64
11448;BME280;43755;49.736;8.734;2022-08-07T10:59:17;98454.47;;;24.02;33.99
11448;BME280;43755;49.736;8.734;2022-08-07T11:01:30;98448.56;;;24.57;35.16
11448;BME280;43755;49.736;8.734;2022-08-07T11:03:41;98453.56;;;23.92;34.00